createdAt,value
2018-03-28T00:01:36.417Z,62.66
2018-03-28T00:04:07.123Z,69.44
2018-03-28T00:06:37.790Z,70.32
2018-03-28T00:09:08.547Z,68.06
2018-03-28T00:11:39.199Z,68.76
2018-03-28T00:14:09.842Z,66.40
2018-03-28T00:16:40.718Z,62.95
2018-03-28T00:19:11.732Z,68.07
2018-03-28T00:21:42.358Z,69.14
2018-03-28T00:24:13.158Z,72.30
2018-03-28T00:26:43.806Z,72.45
2018-03-28T00:29:14.739Z,66.07
2018-03-28T00:31:46.263Z,74.40
2018-03-28T00:34:16.853Z,79.70
2018-03-28T00:36:47.756Z,75.53
2018-03-28T00:39:18.799Z,80.03
2018-03-28T00:41:49.741Z,91.68
2018-03-28T00:44:20.806Z,87.30
2018-03-28T00:46:52.197Z,86.12
2018-03-28T00:49:22.932Z,78.65
2018-03-28T00:51:55.536Z,76.82
2018-03-28T00:54:25.414Z,72.47
2018-03-28T00:56:56.100Z,76.16
2018-03-28T00:59:26.107Z,81.75
2018-03-28T01:01:56.776Z,71.32
2018-03-28T01:04:27.820Z,75.37
2018-03-28T01:06:58.666Z,69.82
2018-03-28T01:09:29.786Z,73.75
2018-03-28T01:12:00.746Z,68.65
2018-03-28T01:14:31.770Z,66.65
2018-03-28T01:17:02.652Z,67.00
2018-03-28T01:19:33.786Z,63.40
2018-03-28T01:22:04.848Z,68.97
2018-03-28T01:24:35.728Z,65.18
2018-03-28T01:27:06.703Z,67.68
2018-03-28T01:29:37.801Z,64.53
2018-03-28T01:32:08.974Z,60.88
2018-03-28T01:34:39.835Z,63.90
2018-03-28T01:37:10.743Z,61.90
2018-03-28T01:39:41.450Z,62.50
2018-03-28T01:42:11.847Z,57.88
2018-03-28T01:44:42.425Z,60.34
2018-03-28T01:47:13.077Z,61.36
2018-03-28T01:49:43.951Z,61.40
2018-03-28T01:52:14.595Z,63.03
2018-03-28T01:54:45.512Z,63.20
2018-03-28T01:57:16.504Z,62.67
2018-03-28T01:59:47.571Z,65.20
2018-03-28T02:02:18.555Z,60.25
2018-03-28T02:04:49.617Z,59.30
2018-03-28T02:07:20.609Z,59.58
2018-03-28T02:09:51.639Z,61.72
2018-03-28T02:12:22.608Z,64.20
2018-03-28T02:14:53.655Z,71.70
2018-03-28T02:17:24.630Z,69.25
2018-03-28T02:19:55.726Z,68.10
2018-03-28T02:22:26.722Z,73.53
2018-03-28T02:25:02.898Z,74.70
2018-03-28T02:27:32.133Z,73.97
2018-03-28T02:30:01.503Z,68.12
2018-03-28T02:32:31.287Z,67.18
2018-03-28T02:35:01.844Z,67.43
2018-03-28T02:37:32.726Z,65.15
2018-03-28T02:40:03.799Z,66.12
2018-03-28T02:42:34.514Z,63.53
2018-03-28T02:45:04.862Z,63.13
2018-03-28T02:47:35.328Z,65.95
2018-03-28T02:50:06.338Z,61.10
2018-03-28T02:52:37.112Z,63.05
2018-03-28T02:55:08.079Z,64.68
2018-03-28T02:57:38.938Z,67.82
2018-03-28T03:00:10.032Z,61.80
2018-03-28T03:02:40.926Z,62.25
2018-03-28T03:05:12.020Z,65.03
2018-03-28T03:07:42.991Z,71.53
2018-03-28T03:10:14.012Z,67.68
2018-03-28T03:12:44.948Z,68.65
2018-03-28T03:15:15.967Z,66.20
2018-03-28T03:17:46.934Z,66.10
2018-03-28T03:20:18.014Z,65.30
2018-03-28T03:22:49.000Z,61.45
2018-03-28T03:25:20.578Z,67.24
2018-03-28T03:27:51.215Z,64.57
2018-03-28T03:30:22.448Z,73.47
2018-03-28T03:32:53.447Z,73.78
2018-03-28T03:35:24.939Z,68.82
2018-03-28T03:37:55.738Z,63.97
2018-03-28T03:40:26.796Z,69.93
2018-03-28T03:42:57.290Z,62.66
2018-03-28T03:45:27.842Z,65.62
2018-03-28T03:47:58.720Z,65.75
2018-03-28T03:50:29.823Z,60.42
2018-03-28T03:53:00.737Z,59.55
2018-03-28T03:55:31.805Z,58.15
2018-03-28T03:58:02.759Z,68.80
2018-03-28T04:00:33.443Z,64.36
2018-03-28T04:03:04.124Z,57.34
2018-03-28T04:05:34.762Z,64.07
2018-03-28T04:08:05.644Z,62.90
2018-03-28T04:10:36.738Z,65.55
2018-03-28T04:13:07.660Z,59.63
2018-03-28T04:15:38.338Z,53.66
2018-03-28T04:18:08.789Z,57.47
2018-03-28T04:20:39.747Z,61.80
2018-03-28T04:23:10.720Z,58.80
2018-03-28T04:25:41.775Z,63.22
2018-03-28T04:28:12.960Z,62.13
2018-03-28T04:30:44.180Z,60.00
2018-03-28T04:33:15.050Z,65.80
2018-03-28T04:35:45.810Z,55.88
2018-03-28T04:38:16.440Z,66.08
2018-03-28T04:40:47.114Z,70.46
2018-03-28T04:43:16.998Z,67.50
2018-03-28T04:45:47.823Z,64.20
2018-03-28T04:48:18.732Z,65.22
2018-03-28T04:50:50.008Z,71.97
2018-03-28T04:53:20.720Z,65.45
2018-03-28T04:55:51.749Z,71.05
2018-03-28T04:58:22.726Z,60.10
2018-03-28T05:00:53.795Z,66.47
2018-03-28T05:03:24.387Z,59.80
2018-03-28T05:05:55.035Z,63.30
2018-03-28T05:08:25.749Z,64.70
2018-03-28T05:10:56.267Z,62.30
2018-03-28T05:13:26.778Z,65.70
2018-03-28T05:15:57.865Z,63.90
2018-03-28T05:18:28.353Z,63.60
2018-03-28T05:20:59.130Z,63.86
2018-03-28T05:23:29.786Z,63.08
2018-03-28T05:26:00.528Z,64.58
2018-03-28T05:28:31.187Z,62.84
2018-03-28T05:31:01.856Z,62.13
2018-03-28T05:33:32.263Z,62.66
2018-03-28T05:36:03.282Z,63.10
2018-03-28T05:38:33.870Z,65.03
2018-03-28T05:41:04.872Z,61.13
2018-03-28T05:43:35.840Z,57.08
2018-03-28T05:46:06.435Z,64.68
2018-03-28T05:48:37.033Z,69.78
2018-03-28T05:51:07.889Z,66.32
2018-03-28T05:53:38.380Z,69.08
2018-03-28T05:56:08.846Z,77.26
2018-03-28T05:58:39.721Z,80.57
2018-03-28T06:01:10.459Z,78.62
2018-03-28T06:03:41.452Z,85.57
2018-03-28T06:06:12.512Z,84.70
2018-03-28T06:08:43.508Z,76.75
2018-03-28T06:11:14.219Z,69.08
2018-03-28T06:13:44.720Z,76.47
2018-03-28T06:16:15.779Z,73.05
2018-03-28T06:18:46.743Z,87.32
2018-03-28T06:21:17.472Z,89.44
2018-03-28T06:23:48.141Z,91.80
2018-03-28T06:26:18.050Z,80.62
2018-03-28T06:28:48.706Z,88.35
2018-03-28T06:31:19.256Z,89.13
2018-03-28T06:33:49.793Z,85.47
2018-03-28T06:36:20.689Z,84.05
2018-03-28T06:38:51.644Z,85.15
2018-03-28T06:41:22.362Z,83.70
2018-03-28T06:43:53.012Z,83.26
2018-03-28T06:46:23.804Z,91.70
2018-03-28T06:48:54.638Z,83.20
2018-03-28T06:51:25.739Z,94.87
2018-03-28T06:53:56.707Z,95.07
2018-03-28T06:56:27.754Z,81.80
2018-03-28T06:58:58.749Z,94.78
2018-03-28T07:01:35.090Z,96.20
2018-03-28T07:04:04.363Z,83.47
2018-03-28T07:06:33.873Z,92.17
2018-03-28T07:09:03.302Z,93.30
2018-03-28T07:11:33.920Z,96.00
2018-03-28T07:14:04.733Z,96.18
2018-03-28T07:16:35.860Z,93.97
2018-03-28T07:19:06.726Z,94.55
2018-03-28T07:21:37.702Z,88.12
2018-03-28T07:24:08.435Z,95.93
2018-03-28T07:26:39.548Z,91.82
2018-03-28T07:29:10.548Z,95.07
2018-03-28T07:31:42.208Z,97.10
2018-03-28T07:34:12.879Z,99.87
2018-03-28T07:36:43.756Z,104.53
2018-03-28T07:39:14.768Z,97.75
2018-03-28T07:41:45.708Z,111.90
2018-03-28T07:44:16.745Z,96.97
2018-03-28T07:46:47.726Z,152.75
2018-03-28T07:49:18.688Z,102.50
2018-03-28T07:51:49.861Z,114.57
2018-03-28T07:54:20.701Z,93.80
2018-03-28T07:56:51.885Z,94.95
2018-03-28T07:59:22.418Z,101.40
2018-03-28T08:01:53.093Z,103.42
2018-03-28T08:04:23.815Z,91.75
2018-03-28T08:06:55.663Z,92.40
2018-03-28T08:09:26.294Z,99.78
2018-03-28T08:11:56.786Z,97.80
2018-03-28T08:14:27.701Z,105.43
2018-03-28T08:16:58.774Z,100.07
2018-03-28T08:19:29.699Z,90.97
2018-03-28T08:22:00.740Z,93.97
2018-03-28T08:24:31.673Z,98.00
2018-03-28T08:27:03.067Z,100.00
2018-03-28T08:29:33.790Z,92.20
2018-03-28T08:32:04.323Z,102.20
2018-03-28T08:34:34.852Z,96.63
2018-03-28T08:37:05.744Z,96.93
2018-03-28T08:39:36.750Z,100.95
2018-03-28T08:42:07.749Z,98.18
2018-03-28T08:44:38.752Z,94.18
2018-03-28T08:47:09.890Z,95.57
2018-03-28T08:49:40.720Z,98.82
2018-03-28T08:52:11.962Z,99.28
2018-03-28T08:54:42.489Z,97.82
2018-03-28T08:57:13.582Z,96.43
2018-03-28T08:59:44.587Z,91.68
2018-03-28T09:02:15.751Z,95.03
2018-03-28T09:04:46.817Z,96.03
2018-03-28T09:07:17.817Z,98.78
2018-03-28T09:09:48.372Z,97.60
2018-03-28T09:12:19.154Z,88.22
2018-03-28T09:14:49.822Z,91.57
2018-03-28T09:17:20.822Z,92.90
2018-03-28T09:19:51.699Z,92.05
2018-03-28T09:22:22.390Z,89.64
2018-03-28T09:24:53.140Z,92.50
2018-03-28T09:27:23.850Z,90.22
2018-03-28T09:29:54.756Z,99.07
2018-03-28T09:32:25.471Z,88.96
2018-03-28T09:34:56.185Z,91.90
2018-03-28T09:37:26.853Z,88.78
2018-03-28T09:39:57.704Z,92.72
2018-03-28T09:42:28.760Z,94.70
2018-03-28T09:44:59.664Z,88.85
2018-03-28T09:47:30.763Z,87.72
2018-03-28T09:50:01.650Z,82.03
2018-03-28T09:52:32.824Z,90.35
2018-03-28T09:55:03.702Z,97.70
2018-03-28T09:57:34.408Z,99.40
2018-03-28T10:00:04.515Z,101.34
2018-03-28T10:02:41.102Z,95.32
2018-03-28T10:05:11.375Z,99.72
2018-03-28T10:07:40.667Z,105.47
2018-03-28T10:10:10.608Z,99.50
2018-03-28T10:12:40.140Z,97.55
2018-03-28T10:15:10.877Z,93.32
2018-03-28T10:17:41.769Z,96.90
2018-03-28T10:20:12.861Z,99.25
2018-03-28T10:22:43.783Z,97.90
2018-03-28T10:25:14.901Z,96.50
2018-03-28T10:27:45.432Z,95.88
2018-03-28T10:30:16.178Z,85.92
2018-03-28T10:32:46.818Z,90.12
2018-03-28T10:35:17.768Z,89.62
2018-03-28T10:37:48.787Z,91.40
2018-03-28T10:40:19.813Z,93.85
2018-03-28T10:42:50.721Z,83.47
2018-03-28T10:45:21.806Z,77.07
2018-03-28T10:47:52.690Z,81.72
2018-03-28T10:50:23.759Z,76.28
2018-03-28T10:52:54.672Z,80.55
2018-03-28T10:55:25.735Z,81.95
2018-03-28T10:57:56.715Z,72.25
2018-03-28T11:00:27.767Z,78.78
2018-03-28T11:02:59.087Z,69.15
2018-03-28T11:05:29.927Z,81.28
2018-03-28T11:08:00.771Z,73.18
2018-03-28T11:10:31.776Z,72.87
2018-03-28T11:13:02.348Z,67.46
2018-03-28T11:15:32.913Z,74.50
2018-03-28T11:18:03.719Z,73.85
2018-03-28T11:20:34.514Z,73.00
2018-03-28T11:23:05.182Z,77.50
2018-03-28T11:25:35.857Z,74.03
2018-03-28T11:28:06.766Z,62.88
2018-03-28T11:30:37.728Z,65.78
2018-03-28T11:33:08.670Z,63.90
2018-03-28T11:35:39.728Z,68.82
2018-03-28T11:38:14.488Z,76.12
2018-03-28T11:40:43.998Z,73.20
2018-03-28T11:43:13.320Z,73.27
2018-03-28T11:45:44.135Z,72.52
2018-03-28T11:48:14.852Z,70.60
2018-03-28T11:50:45.792Z,72.85
2018-03-28T11:53:16.676Z,72.50
2018-03-28T11:55:47.739Z,76.80
2018-03-28T11:58:21.682Z,69.95
2018-03-28T12:00:51.259Z,66.57
2018-03-28T12:03:20.524Z,71.82
2018-03-28T12:05:51.334Z,68.80
2018-03-28T12:08:22.057Z,64.66
2018-03-28T12:10:52.166Z,66.53
2018-03-28T12:13:22.778Z,73.93
2018-03-28T12:15:53.417Z,61.88
2018-03-28T12:18:24.044Z,64.12
2018-03-28T12:20:54.862Z,65.55
2018-03-28T12:23:28.019Z,71.25
2018-03-28T12:25:57.477Z,66.80
2018-03-28T12:28:28.402Z,74.86
2018-03-28T12:30:59.199Z,66.44
2018-03-28T12:33:29.751Z,63.60
2018-03-28T12:36:00.834Z,56.37
2018-03-28T12:38:31.686Z,55.72
2018-03-28T12:41:02.762Z,53.25
2018-03-28T12:43:33.394Z,55.88
2018-03-28T12:46:04.094Z,53.42
2018-03-28T12:48:34.710Z,52.28
2018-03-28T12:51:05.811Z,56.28
2018-03-28T12:53:36.684Z,51.55
2018-03-28T12:56:07.786Z,57.97
2018-03-28T12:58:38.416Z,53.88
2018-03-28T13:01:09.137Z,53.62
2018-03-28T13:03:39.815Z,46.60
2018-03-28T13:06:10.829Z,44.78
2018-03-28T13:08:41.746Z,49.10
2018-03-28T13:11:12.892Z,42.85
2018-03-28T13:13:43.736Z,42.50
2018-03-28T13:16:14.724Z,47.62
2018-03-28T13:18:45.699Z,46.55
2018-03-28T13:21:16.390Z,44.00
2018-03-28T13:26:29.074Z,46.72
2018-03-28T13:28:58.308Z,47.53
2018-03-28T13:31:27.669Z,45.22
2018-03-28T13:33:57.092Z,42.42
2018-03-28T13:36:26.405Z,47.82
2018-03-28T13:38:55.658Z,50.08
2018-03-28T13:41:25.040Z,54.30
2018-03-28T13:43:56.056Z,46.50
2018-03-28T13:46:26.189Z,52.10
2018-03-28T13:48:56.741Z,48.65
2018-03-28T13:51:27.808Z,48.83
2018-03-28T13:53:59.455Z,57.50
2018-03-28T13:56:30.131Z,51.68
2018-03-28T13:59:00.715Z,51.35
2018-03-28T14:01:31.374Z,53.02
2018-03-28T14:04:02.087Z,58.08
2018-03-28T14:06:32.918Z,48.28
2018-03-28T14:09:03.759Z,60.80
2018-03-28T14:11:36.237Z,54.90
2018-03-28T14:14:06.143Z,55.15
2018-03-28T14:16:36.847Z,46.00
2018-03-28T14:19:07.701Z,48.47
2018-03-28T14:21:38.735Z,47.90
2018-03-28T14:24:09.746Z,56.10
2018-03-28T14:26:40.795Z,52.62
2018-03-28T14:29:11.653Z,49.97
2018-03-28T14:31:43.384Z,54.32
2018-03-28T14:34:14.099Z,53.00
2018-03-28T14:36:44.085Z,51.15
2018-03-28T14:39:14.945Z,51.60
2018-03-28T14:41:45.836Z,58.45
2018-03-28T14:44:16.647Z,57.40
2018-03-28T14:46:47.750Z,55.22
2018-03-28T14:49:18.763Z,128.38
2018-03-28T14:51:49.881Z,250.07
2018-03-28T14:54:20.760Z,114.75
2018-03-28T14:56:51.865Z,91.65
2018-03-28T14:59:22.771Z,79.22
2018-03-28T15:01:53.839Z,56.47
2018-03-28T15:04:24.717Z,55.88
2018-03-28T15:06:55.768Z,57.38
2018-03-28T15:09:26.772Z,59.45
2018-03-28T15:11:57.788Z,56.95
2018-03-28T15:14:30.336Z,61.73
2018-03-28T15:16:59.723Z,55.55
2018-03-28T15:19:30.382Z,61.32
2018-03-28T15:22:01.152Z,54.44
2018-03-28T15:24:31.839Z,53.70
2018-03-28T15:27:03.154Z,54.63
2018-03-28T15:29:33.813Z,50.53
2018-03-28T15:32:05.421Z,56.44
2018-03-28T15:34:36.041Z,52.74
2018-03-28T15:37:06.827Z,57.40
2018-03-28T15:39:37.431Z,67.82
2018-03-28T15:42:08.169Z,71.48
2018-03-28T15:44:38.724Z,80.20
2018-03-28T15:47:09.924Z,67.07
2018-03-28T15:49:40.692Z,74.65
2018-03-28T15:52:11.804Z,65.93
2018-03-28T15:54:42.840Z,61.08
2018-03-28T15:57:13.756Z,52.53
2018-03-28T15:59:44.652Z,49.22
2018-03-28T16:02:15.732Z,44.50
2018-03-28T16:04:46.736Z,44.65
2018-03-28T16:07:17.637Z,52.13
2018-03-28T16:09:49.303Z,57.97
2018-03-28T16:12:20.160Z,62.90
2018-03-28T16:14:50.426Z,67.47
2018-03-28T16:17:21.118Z,66.34
2018-03-28T16:19:51.735Z,64.75
2018-03-28T16:22:22.788Z,65.95
2018-03-28T16:24:53.700Z,64.28
2018-03-28T16:27:24.785Z,62.28
2018-03-28T16:29:55.656Z,64.82
2018-03-28T16:32:26.727Z,61.00
2018-03-28T16:34:57.714Z,66.37
2018-03-28T16:37:28.784Z,66.65
2018-03-28T16:39:59.803Z,83.87
2018-03-28T16:42:30.908Z,76.65
2018-03-28T16:45:01.747Z,77.15
2018-03-28T16:47:32.859Z,71.87
2018-03-28T16:50:03.694Z,85.93
2018-03-28T16:52:34.811Z,84.45
2018-03-28T16:55:05.419Z,83.44
2018-03-28T16:57:36.149Z,81.26
2018-03-28T17:00:06.849Z,83.87
2018-03-28T17:02:37.735Z,99.75
2018-03-28T17:05:08.752Z,89.55
2018-03-28T17:07:39.885Z,87.10
2018-03-28T17:10:10.753Z,96.50
2018-03-28T17:12:41.862Z,76.62
2018-03-28T17:15:12.726Z,73.60
2018-03-28T17:17:43.718Z,74.28
2018-03-28T17:20:14.731Z,77.60
2018-03-28T17:22:45.782Z,79.15
2018-03-28T17:25:16.822Z,75.25
2018-03-28T17:27:47.817Z,74.45
2018-03-28T17:30:18.655Z,68.97
2018-03-28T17:32:49.735Z,70.80
2018-03-28T17:35:20.392Z,77.52
2018-03-28T17:37:51.177Z,73.44
2018-03-28T17:40:21.846Z,76.28
2018-03-28T17:42:52.820Z,79.18
2018-03-28T17:45:23.695Z,75.12
2018-03-28T17:47:54.800Z,82.03
2018-03-28T17:50:26.152Z,87.47
2018-03-28T17:52:57.194Z,81.72
2018-03-28T17:55:28.100Z,82.30
2018-03-28T17:57:58.812Z,81.68
2018-03-28T18:00:29.508Z,76.03
2018-03-28T18:03:00.646Z,77.60
2018-03-28T18:05:31.649Z,78.00
2018-03-28T18:08:02.756Z,70.95
2018-03-28T18:10:33.759Z,83.45
2018-03-28T18:13:04.761Z,89.62
2018-03-28T18:15:35.722Z,89.72
2018-03-28T18:18:06.728Z,95.53
2018-03-28T18:20:37.341Z,104.96
2018-03-28T18:23:08.128Z,128.94
2018-03-28T18:25:38.843Z,120.50
2018-03-28T18:28:09.923Z,124.78
2018-03-28T18:30:40.802Z,123.95
2018-03-28T18:33:11.802Z,126.10
2018-03-28T18:35:42.700Z,119.45
2018-03-28T18:38:13.771Z,109.53
2018-03-28T18:40:44.390Z,105.60
2018-03-28T18:43:15.374Z,122.30
2018-03-28T18:45:46.064Z,118.66
2018-03-28T18:48:17.636Z,111.90
2018-03-28T18:50:49.734Z,85.52
2018-03-28T18:53:19.613Z,82.12
2018-03-28T18:55:50.396Z,69.10
2018-03-28T18:58:21.046Z,84.28
2018-03-28T19:00:51.839Z,80.07
2018-03-28T19:03:22.475Z,83.37
2018-03-28T19:05:53.586Z,77.15
2018-03-28T19:08:24.527Z,85.58
2018-03-28T19:10:55.262Z,76.56
2018-03-28T19:13:25.810Z,80.85
2018-03-28T19:15:56.880Z,65.97
2018-03-28T19:18:27.738Z,73.10
2018-03-28T19:20:58.936Z,69.62
2018-03-28T19:23:29.772Z,75.07
2018-03-28T19:26:00.848Z,65.78
2018-03-28T19:28:31.710Z,69.15
2018-03-28T19:31:02.797Z,60.72
2018-03-28T19:33:33.864Z,66.15
2018-03-28T19:36:04.803Z,63.00
2018-03-28T19:38:35.505Z,61.28
2018-03-28T19:41:06.354Z,61.44
2018-03-28T19:43:36.106Z,72.72
2018-03-28T19:46:06.901Z,68.57
2018-03-28T19:48:37.703Z,61.22
2018-03-28T19:51:08.864Z,55.83
2018-03-28T19:53:39.663Z,54.88
2018-03-28T19:56:10.778Z,70.10
2018-03-28T19:58:41.656Z,104.47
2018-03-28T20:01:12.858Z,123.03
2018-03-28T20:03:43.334Z,142.20
2018-03-28T20:06:14.114Z,96.06
2018-03-28T20:08:45.090Z,96.50
2018-03-28T20:11:16.254Z,61.72
2018-03-28T20:13:46.082Z,55.80
2018-03-28T20:16:16.807Z,54.78
2018-03-28T20:18:47.356Z,56.50
2018-03-28T20:21:18.092Z,57.30
2018-03-28T20:23:48.751Z,59.30
2018-03-28T20:26:19.827Z,57.58
2018-03-28T20:28:50.734Z,58.53
2018-03-28T20:31:21.840Z,61.33
2018-03-28T20:33:52.782Z,56.50
2018-03-28T20:36:23.777Z,60.83
2018-03-28T20:38:54.634Z,55.33
2018-03-28T20:41:25.689Z,57.88
2018-03-28T20:43:56.701Z,59.33
2018-03-28T20:46:27.777Z,60.72
2018-03-28T20:48:58.793Z,61.95
2018-03-28T20:51:29.837Z,60.50
2018-03-28T20:54:00.705Z,64.55
2018-03-28T20:56:31.787Z,61.35
2018-03-28T20:59:02.980Z,59.00
2018-03-28T21:01:33.816Z,64.53
2018-03-28T21:04:04.855Z,70.05
2018-03-28T21:06:35.329Z,65.38
2018-03-28T21:09:05.469Z,64.58
2018-03-28T21:11:36.637Z,64.68
2018-03-28T21:14:07.605Z,67.40
2018-03-28T21:16:38.228Z,62.94
2018-03-28T21:19:08.488Z,70.65
2018-03-28T21:21:40.797Z,70.32
2018-03-28T21:24:11.256Z,68.36
2018-03-28T21:26:41.760Z,69.30
2018-03-28T21:29:12.633Z,66.53
2018-03-28T21:31:43.622Z,67.03
2018-03-28T21:34:14.637Z,69.50
2018-03-28T21:36:46.441Z,82.20
2018-03-28T21:39:16.069Z,75.07
2018-03-28T21:41:46.859Z,76.30
2018-03-28T21:44:17.710Z,95.75
2018-03-28T21:46:48.703Z,88.85
2018-03-28T21:49:19.630Z,93.40
2018-03-28T21:51:50.867Z,97.10
2018-03-28T21:54:21.709Z,86.15
2018-03-28T21:56:52.822Z,81.95
2018-03-28T21:59:23.788Z,71.85
2018-03-28T22:01:54.768Z,76.37
2018-03-28T22:04:25.400Z,71.00
2018-03-28T22:06:56.058Z,69.64
2018-03-28T22:09:26.748Z,79.80
2018-03-28T22:11:57.812Z,74.37
2018-03-28T22:14:28.683Z,77.43
2018-03-28T22:16:59.315Z,67.62
2018-03-28T22:19:29.724Z,82.78
2018-03-28T22:22:00.480Z,73.44
2018-03-28T22:24:31.231Z,74.62
2018-03-28T22:27:01.716Z,76.68
2018-03-28T22:29:32.657Z,76.85
2018-03-28T22:32:04.260Z,82.80
2018-03-28T22:34:34.713Z,77.32
2018-03-28T22:37:05.691Z,76.60
2018-03-28T22:39:36.659Z,76.87
2018-03-28T22:42:07.946Z,79.35
2018-03-28T22:44:38.339Z,79.24
2018-03-28T22:47:09.037Z,65.94
2018-03-28T22:49:39.785Z,73.90
2018-03-28T22:52:10.871Z,72.95
2018-03-28T22:54:41.678Z,77.30
2018-03-28T22:57:12.724Z,83.53
2018-03-28T22:59:43.648Z,77.70
2018-03-28T23:02:14.661Z,85.65
2018-03-28T23:04:45.579Z,78.62
2018-03-28T23:07:16.623Z,83.05
2018-03-28T23:09:47.552Z,85.50
2018-03-28T23:12:18.366Z,92.60
2018-03-28T23:14:49.072Z,85.78
2018-03-28T23:17:19.697Z,91.70
2018-03-28T23:19:50.695Z,91.15
2018-03-28T23:22:32.629Z,89.37
2018-03-28T23:25:01.992Z,98.07
2018-03-28T23:27:30.965Z,88.00
2018-03-28T23:30:00.325Z,97.93
2018-03-28T23:32:29.573Z,93.67
2018-03-28T23:34:58.847Z,94.78
2018-03-28T23:37:28.160Z,95.72
2018-03-28T23:39:58.068Z,94.32
2018-03-28T23:42:28.792Z,93.93
2018-03-28T23:44:59.805Z,92.25
2018-03-28T23:47:30.484Z,98.04
2018-03-28T23:50:01.088Z,102.28
2018-03-28T23:52:31.927Z,95.18
2018-03-28T23:55:02.936Z,96.28
2018-03-28T23:57:33.797Z,95.55
